Ellerslie, Maryland
Current Conditions -  °F | °C
As of 2:40 AM on Sunday 23 Nov 2014 (Local Time) from KCBE Reporting Station
Clear Clear  
Wind Chill: 32°   Ceiling: Unl
Heat Index: 32°   Visibility: 10mi
Dew Point: 27°   Wind: 0mph
Humidity: 80%   Direction: NA
Pressure: 30.2"   Gusts: NA
Location:  39.72°N, 78.77°W
Report Text: KCBE 230740Z AUTO 00000KT 10SM CLR 00/M03 A3020 RMK AO1
Loading
Personal Weather Stations






























Interactive Weather Map New forecast layout! Learn more

10-Day Weather Forecast

Advertisements
Track Severe Weather on mobile